Time;durP1;ratioP1;P1;durP2;ratioP2;P2;SDS_P1;SDS_P2;PMS_P1;PMS_P2;Temp;Humidity;BMP_temperature;BMP_pressure;BME280_temperature;BME280_humidity;BME280_pressure;Samples;Min_cycle;Max_cycle;Signal;HPM_P1;HPM_P2
2023/09/10 00:02:38;;;;;;;1999.90;999.90;;;;;;;19.68;100.00;101668.22;10541024;28;20123;-69
2023/09/10 00:07:41;;;;;;;1999.90;999.90;;;;;;;19.56;100.00;101663.91;10540651;28;20044;-69
2023/09/10 00:12:43;;;;;;;1999.90;999.90;;;;;;;19.67;100.00;101669.22;10539387;28;20128;-69
2023/09/10 00:17:46;;;;;;;1999.90;999.90;;;;;;;19.59;100.00;101663.69;10539307;28;20047;-69
2023/09/10 00:22:48;;;;;;;1999.90;999.90;;;;;;;19.80;100.00;101658.44;10540178;28;20052;-69
2023/09/10 00:27:51;;;;;;;1999.90;999.90;;;;;;;19.79;100.00;101666.53;10539550;28;20048;-69
2023/09/10 00:32:53;;;;;;;1999.90;999.90;;;;;;;19.78;100.00;101664.84;10521852;28;20095;-69
2023/09/10 00:37:56;;;;;;;1999.90;999.90;;;;;;;19.76;100.00;101656.16;10538917;28;20104;-69
2023/09/10 00:43:02;;;;;;;1999.90;999.90;;;;;;;19.67;100.00;101663.91;10539374;28;20063;-69
2023/09/10 00:48:05;;;;;;;1999.90;999.90;;;;;;;19.62;100.00;101660.78;10538741;28;20054;-69
2023/09/10 00:53:07;;;;;;;1999.90;999.90;;;;;;;19.52;100.00;101648.34;10538670;28;20044;-69
2023/09/10 00:58:09;;;;;;;1999.90;999.90;;;;;;;19.52;100.00;101651.88;10538532;28;20058;-69
2023/09/10 01:03:12;;;;;;;1999.90;999.90;;;;;;;19.42;100.00;101656.25;10537771;28;20503;-69
2023/09/10 01:08:15;;;;;;;1999.90;999.90;;;;;;;19.30;100.00;101661.59;10538243;28;20044;-69
2023/09/10 01:13:56;;;;;;;1999.90;999.90;;;;;;;19.51;100.00;101657.31;10538248;28;20101;-69
2023/09/10 01:19:07;;;;;;;1999.90;999.90;;;;;;;19.44;100.00;101662.28;10519009;28;20504;-69
2023/09/10 01:24:45;;;;;;;1999.90;999.90;;;;;;;19.40;100.00;101658.16;10537454;28;20480;-69
2023/09/10 01:29:47;;;;;;;1999.90;999.90;;;;;;;19.42;100.00;101666.88;10537812;28;20048;-70
2023/09/10 01:35:12;;;;;;;1999.90;999.90;;;;;;;19.33;100.00;101662.28;10541644;28;20051;-69
2023/09/10 01:40:19;;;;;;;1999.90;999.90;;;;;;;19.21;100.00;101666.78;10545699;28;20059;-69
2023/09/10 01:45:23;;;;;;;1999.90;999.90;;;;;;;19.20;100.00;101665.97;10544995;28;20089;-69
2023/09/10 01:50:27;;;;;;;1999.90;999.90;;;;;;;19.18;100.00;101662.59;10544678;28;20077;-69
2023/09/10 01:55:30;;;;;;;1999.90;999.90;;;;;;;19.33;100.00;101663.13;10544529;28;20131;-69
2023/09/10 02:00:32;;;;;;;1999.90;999.90;;;;;;;19.30;100.00;101669.56;10527155;28;20485;-69
2023/09/10 02:05:34;;;;;;;1999.90;999.90;;;;;;;19.21;100.00;101675.59;10543466;28;20048;-69
2023/09/10 02:10:37;;;;;;;1999.90;999.90;;;;;;;19.22;100.00;101674.63;10544509;28;20408;-69
2023/09/10 02:15:40;;;;;;;1999.90;999.90;;;;;;;19.16;100.00;101668.97;10544911;28;20052;-69
2023/09/10 02:20:42;;;;;;;1999.90;999.90;;;;;;;19.12;100.00;101673.69;10544106;28;20052;-69
2023/09/10 02:25:45;;;;;;;1999.90;999.90;;;;;;;19.09;100.00;101679.22;10543809;28;20056;-69
2023/09/10 02:30:48;;;;;;;1999.90;999.90;;;;;;;19.05;100.00;101681.28;10544028;28;20060;-69
2023/09/10 02:35:51;;;;;;;1999.90;999.90;;;;;;;19.07;100.00;101691.78;10542437;28;20074;-69
2023/09/10 02:40:55;;;;;;;1999.90;999.90;;;;;;;19.02;100.00;101680.69;10543964;28;20056;-69
2023/09/10 02:45:57;;;;;;;1999.90;999.90;;;;;;;19.03;100.00;101685.00;10541308;28;20048;-69
2023/09/10 02:51:00;;;;;;;1999.90;999.90;;;;;;;18.97;100.00;101677.56;10542948;28;20052;-69
2023/09/10 02:56:03;;;;;;;1999.90;999.90;;;;;;;19.00;100.00;101674.66;10542686;28;20473;-69
2023/09/10 03:01:06;;;;;;;1999.90;999.90;;;;;;;19.02;100.00;101680.69;10543169;28;20051;-69
2023/09/10 03:06:12;;;;;;;1999.90;999.90;;;;;;;18.93;100.00;101685.75;10541661;28;20110;-69
2023/09/10 03:11:15;;;;;;;1999.90;999.90;;;;;;;19.02;100.00;101681.53;10541622;28;20135;-69
2023/09/10 03:16:17;;;;;;;1999.90;999.90;;;;;;;19.08;100.00;101685.50;10542467;28;20119;-69
2023/09/10 03:21:20;;;;;;;1999.90;999.90;;;;;;;18.95;100.00;101683.00;10542267;28;20123;-69
2023/09/10 03:26:22;;;;;;;1999.90;999.90;;;;;;;18.91;100.00;101677.09;10542051;28;20075;-69
2023/09/10 03:31:25;;;;;;;1999.90;999.90;;;;;;;18.94;100.00;101679.47;10539985;28;20569;-69
2023/09/10 03:36:28;;;;;;;1999.90;999.90;;;;;;;18.91;100.00;101669.13;10541098;28;20063;-70
2023/09/10 03:41:30;;;;;;;1999.90;999.90;;;;;;;19.00;100.00;101672.84;10540419;28;20055;-70
2023/09/10 03:46:32;;;;;;;1999.90;999.90;;;;;;;18.88;100.00;101666.72;10541387;28;20048;-69
2023/09/10 03:51:35;;;;;;;1999.90;999.90;;;;;;;19.10;100.00;101652.56;10540722;28;20044;-69
2023/09/10 03:56:38;;;;;;;1999.90;999.90;;;;;;;18.92;100.00;101662.00;10540844;28;20060;-69
2023/09/10 04:01:41;;;;;;;1999.90;999.90;;;;;;;18.87;100.00;101666.81;10540311;28;20404;-69
2023/09/10 04:06:43;;;;;;;1999.90;999.90;;;;;;;19.10;100.00;101657.03;10540089;28;20044;-69
2023/09/10 04:11:45;;;;;;;1999.90;999.90;;;;;;;18.97;100.00;101654.50;10539520;28;20058;-69
2023/09/10 04:16:48;;;;;;;1999.90;999.90;;;;;;;18.83;100.00;101649.44;10539957;28;20484;-69
2023/09/10 04:21:50;;;;;;;1999.90;999.90;;;;;;;18.78;100.00;101659.53;10539877;28;20052;-69
2023/09/10 04:26:53;;;;;;;1999.90;999.90;;;;;;;18.84;100.00;101654.63;10540307;28;20131;-69
2023/09/10 04:31:56;;;;;;;1999.90;999.90;;;;;;;19.12;100.00;101655.94;10539742;28;20079;-69
2023/09/10 04:36:59;;;;;;;1999.90;999.90;;;;;;;19.17;100.00;101660.88;10540140;28;20056;-69
2023/09/10 04:42:02;;;;;;;1999.90;999.90;;;;;;;19.05;100.00;101654.75;10539028;28;20048;-69
2023/09/10 04:47:05;;;;;;;1999.90;999.90;;;;;;;18.97;100.00;101662.47;10539843;28;20050;-70
2023/09/10 04:52:07;;;;;;;1999.90;999.90;;;;;;;18.82;100.00;101661.00;10540220;28;20105;-70
2023/09/10 04:57:11;;;;;;;1999.90;999.90;;;;;;;18.89;100.00;101652.47;10539686;28;20052;-69
2023/09/10 05:02:13;;;;;;;1999.90;999.90;;;;;;;18.81;100.00;101657.53;10539161;28;20052;-70
2023/09/10 05:07:15;;;;;;;1999.90;999.90;;;;;;;18.77;100.00;101663.19;10539538;28;20043;-70
2023/09/10 05:12:18;;;;;;;1999.90;999.90;;;;;;;18.79;100.00;101661.25;10547195;28;20131;-70
2023/09/10 05:17:20;;;;;;;1999.90;999.90;;;;;;;18.77;100.00;101668.50;10546705;28;20489;-70
2023/09/10 05:22:23;;;;;;;1999.90;999.90;;;;;;;18.71;100.00;101678.63;10545298;28;20058;-70
2023/09/10 05:27:25;;;;;;;1999.90;999.90;;;;;;;18.84;100.00;101675.84;10545730;28;20044;-70
2023/09/10 05:32:28;;;;;;;1999.90;999.90;;;;;;;18.90;100.00;101675.38;10546224;28;20082;-70
2023/09/10 05:37:31;;;;;;;1999.90;999.90;;;;;;;18.85;100.00;101674.06;10545889;28;20448;-70
2023/09/10 05:42:33;;;;;;;1999.90;999.90;;;;;;;19.06;100.00;101679.47;10546449;28;20131;-70
2023/09/10 05:47:35;;;;;;;1999.90;999.90;;;;;;;19.19;100.00;101679.34;10544283;28;20488;-70
2023/09/10 05:52:38;;;;;;;1999.90;999.90;;;;;;;19.34;100.00;101686.06;10545369;28;20056;-70
2023/09/10 05:57:40;;;;;;;1999.90;999.90;;;;;;;19.37;100.00;101682.34;10545128;28;20048;-70
2023/09/10 06:02:42;;;;;;;1999.90;999.90;;;;;;;19.45;100.00;101687.84;10545541;28;20075;-70
2023/09/10 06:07:45;;;;;;;1999.90;999.90;;;;;;;19.47;100.00;101688.59;10545249;28;20048;-70
2023/09/10 06:12:47;;;;;;;1999.90;999.90;;;;;;;19.49;100.00;101689.31;10545068;28;20101;-70
2023/09/10 06:17:49;;;;;;;1999.90;999.90;;;;;;;19.84;100.00;101688.25;10544969;28;20044;-70
2023/09/10 06:22:52;;;;;;;1999.90;999.90;;;;;;;19.85;100.00;101695.25;10543385;28;20052;-70
2023/09/10 06:27:55;;;;;;;1999.90;999.90;;;;;;;19.96;100.00;101692.56;10544523;28;20051;-70
2023/09/10 06:32:58;;;;;;;1999.90;999.90;;;;;;;20.16;100.00;101687.41;10543351;28;20530;-70
2023/09/10 06:38:00;;;;;;;1999.90;999.90;;;;;;;20.16;100.00;101693.53;10543508;28;20467;-70
2023/09/10 06:43:06;;;;;;;1999.90;999.90;;;;;;;20.34;100.00;101691.16;10543964;28;20093;-70
2023/09/10 06:48:08;;;;;;;1999.90;999.90;;;;;;;20.53;100.00;101693.09;10543021;28;20044;-70
2023/09/10 06:53:11;;;;;;;1999.90;999.90;;;;;;;20.75;100.00;101693.94;10541781;28;20048;-70
2023/09/10 06:58:17;;;;;;;1999.90;999.90;;;;;;;20.99;100.00;101685.63;10543406;28;20088;-70
2023/09/10 07:03:19;;;;;;;1999.90;999.90;;;;;;;21.28;100.00;101696.38;10543273;28;20105;-70
2023/09/10 07:08:21;;;;;;;1999.90;999.90;;;;;;;21.39;100.00;101700.72;10541614;28;20054;-70
2023/09/10 07:13:24;;;;;;;1999.90;999.90;;;;;;;21.81;100.00;101695.19;10542738;28;20047;-70
2023/09/10 07:18:32;;;;;;;1999.90;999.90;;;;;;;21.96;100.00;101700.97;10541790;28;20405;-70
2023/09/10 07:23:35;;;;;;;1999.90;999.90;;;;;;;22.32;100.00;101689.72;10540483;28;20507;-70
2023/09/10 07:28:37;;;;;;;1999.90;999.90;;;;;;;22.90;100.00;101692.22;10542128;28;20083;-68
2023/09/10 07:33:40;;;;;;;1999.90;999.90;;;;;;;23.40;99.31;101688.28;10540529;28;20465;-68
2023/09/10 07:38:42;;;;;;;1999.90;999.90;;;;;;;23.79;95.40;101695.19;10539864;28;20420;-69
2023/09/10 07:43:44;;;;;;;1999.90;999.90;;;;;;;24.13;91.26;101699.88;10540376;28;20044;-69
2023/09/10 07:48:47;;;;;;;1999.90;999.90;;;;;;;24.43;89.25;101702.09;10540070;28;20043;-70
2023/09/10 07:53:49;;;;;;;1999.90;999.90;;;;;;;24.58;87.06;101701.53;10541166;28;20048;-70
2023/09/10 07:58:51;;;;;;;1999.90;999.90;;;;;;;25.38;88.45;101694.03;10539116;28;20546;-70
2023/09/10 08:03:54;;;;;;;1999.90;999.90;;;;;;;25.49;82.74;101697.41;10538971;28;20060;-70
2023/09/10 08:08:57;;;;;;;1999.90;999.90;;;;;;;25.79;80.74;101695.94;10540546;28;20052;-70
2023/09/10 08:13:59;;;;;;;1999.90;999.90;;;;;;;26.36;79.70;101702.31;10538632;28;20427;-70
2023/09/10 08:19:01;;;;;;;1999.90;999.90;;;;;;;26.46;81.06;101703.81;10540343;28;20044;-70
2023/09/10 08:24:04;;;;;;;1999.90;999.90;;;;;;;26.07;76.85;101709.88;10540175;28;20054;-70
2023/09/10 08:29:06;;;;;;;1999.90;999.90;;;;;;;26.47;76.14;101708.16;10539339;28;20122;-70
2023/09/10 08:34:09;;;;;;;1999.90;999.90;;;;;;;27.02;76.04;101706.50;10537975;28;20056;-70
2023/09/10 08:39:11;;;;;;;1999.90;999.90;;;;;;;27.46;70.19;101693.56;10539932;28;20123;-70
2023/09/10 08:44:19;;;;;;;1999.90;999.90;;;;;;;27.15;72.17;101687.16;10544505;28;20054;-71
2023/09/10 08:49:23;;;;;;;1999.90;999.90;;;;;;;27.31;72.74;101686.22;10548336;28;20048;-71
2023/09/10 08:54:25;;;;;;;1999.90;999.90;;;;;;;27.94;70.47;101695.06;10547079;28;20127;-71
2023/09/10 08:59:29;;;;;;;1999.90;999.90;;;;;;;28.02;69.77;101685.25;10546796;28;20083;-71
2023/09/10 09:04:31;;;;;;;1999.90;999.90;;;;;;;27.92;68.66;101686.31;10547116;28;20074;-71
2023/09/10 09:09:39;;;;;;;1999.90;999.90;;;;;;;29.16;65.35;101683.13;10546343;28;20050;-71
2023/09/10 09:14:42;;;;;;;1999.90;999.90;;;;;;;29.26;65.22;101683.69;10545607;28;20408;-71
2023/09/10 09:19:45;;;;;;;1999.90;999.90;;;;;;;29.21;62.19;101686.13;10546317;28;20582;-72
2023/09/10 09:24:49;;;;;;;1999.90;999.90;;;;;;;30.63;60.71;101675.47;10546812;28;20109;-71
2023/09/10 09:29:52;;;;;;;1999.90;999.90;;;;;;;30.02;60.94;101675.06;10545498;28;20076;-72
2023/09/10 09:34:54;;;;;;;1999.90;999.90;;;;;;;30.38;59.05;101668.72;10544752;28;20052;-71
2023/09/10 09:39:57;;;;;;;1999.90;999.90;;;;;;;31.64;59.12;101667.53;10546351;28;20048;-71
2023/09/10 09:45:00;;;;;;;1999.90;999.90;;;;;;;30.63;56.32;101667.38;10547660;22;20521;-71
2023/09/10 09:50:03;;;;;;;1999.90;999.90;;;;;;;31.35;55.70;101660.56;10461650;28;20052;-71
2023/09/10 09:55:08;;;;;;;1999.90;999.90;;;;;;;31.49;54.38;101664.97;10460137;28;20418;-72
2023/09/10 10:00:11;;;;;;;1999.90;999.90;;;;;;;32.34;53.86;101658.13;10462357;28;20045;-72
2023/09/10 10:05:13;;;;;;;1999.90;999.90;;;;;;;33.65;52.54;101645.16;10461514;28;20478;-71
2023/09/10 10:10:15;;;;;;;1999.90;999.90;;;;;;;32.92;52.42;101643.75;10461290;28;20056;-72
2023/09/10 10:15:19;;;;;;;1999.90;999.90;;;;;;;33.19;52.60;101635.47;10461077;28;20057;-71
2023/09/10 10:20:22;;;;;;;1999.90;999.90;;;;;;;34.06;50.66;101641.03;10460395;28;20056;-72
2023/09/10 10:25:25;;;;;;;1999.90;999.90;;;;;;;33.38;51.07;101633.69;10459591;28;20386;-72
2023/09/10 10:30:29;;;;;;;1999.90;999.90;;;;;;;35.10;47.08;101627.47;10443365;28;20124;-70
2023/09/10 10:35:34;;;;;;;1999.90;999.90;;;;;;;34.94;47.17;101631.69;10459849;28;20045;-70
2023/09/10 10:40:39;;;;;;;1999.90;999.90;;;;;;;34.91;47.59;101629.41;10459018;28;20498;-70
2023/09/10 10:45:47;;;;;;;1999.90;999.90;;;;;;;35.00;46.66;101619.03;10460336;28;20063;-71
2023/09/10 10:50:51;;;;;;;1999.90;999.90;;;;;;;36.58;45.69;101621.13;10459114;28;20045;-70
2023/09/10 10:56:03;;;;;;;1999.90;999.90;;;;;;;34.98;48.13;101615.72;10441892;28;20129;-70
2023/09/10 11:01:05;;;;;;;1999.90;999.90;;;;;;;34.03;46.76;101615.16;10460004;28;20045;-70
2023/09/10 11:06:08;;;;;;;1999.90;999.90;;;;;;;35.78;44.67;101609.03;10440442;28;20541;-70
2023/09/10 11:11:33;;;;;;;1999.90;999.90;;;;;;;34.52;46.97;101612.56;10459471;28;20044;-70
2023/09/10 11:16:38;;;;;;;1999.90;999.90;;;;;;;36.70;44.61;101602.03;10458778;28;20099;-70
2023/09/10 11:21:56;;;;;;;1999.90;999.90;;;;;;;37.56;43.57;101590.13;10457937;28;20048;-71
2023/09/10 11:27:23;;;;;;;1999.90;999.90;;;;;;;36.35;44.94;101596.66;10457584;28;20049;-70
2023/09/10 11:32:26;;;;;;;1999.90;999.90;;;;;;;35.25;45.03;101585.41;10456878;28;20489;-71
2023/09/10 11:37:28;;;;;;;1999.90;999.90;;;;;;;36.79;44.14;101597.00;10456701;28;20409;-71
2023/09/10 11:42:31;;;;;;;1999.90;999.90;;;;;;;35.26;45.87;101589.81;10456576;28;20515;-70
2023/09/10 11:47:33;;;;;;;1999.90;999.90;;;;;;;35.63;46.48;101593.16;10440094;28;20059;-71
2023/09/10 11:52:36;;;;;;;1999.90;999.90;;;;;;;35.71;44.59;101592.78;10458003;28;20082;-71
2023/09/10 11:57:39;;;;;;;1999.90;999.90;;;;;;;35.08;44.77;101590.69;10456036;28;20049;-71
2023/09/10 12:02:41;;;;;;;1999.90;999.90;;;;;;;35.79;45.77;101590.81;10457007;28;20079;-71
2023/09/10 12:07:45;;;;;;;1999.90;999.90;;;;;;;36.58;40.62;101593.00;10456216;28;20124;-70
2023/09/10 12:12:48;;;;;;;1999.90;999.90;;;;;;;34.35;47.13;101587.88;10455470;28;20461;-71
2023/09/10 12:17:50;;;;;;;1999.90;999.90;;;;;;;36.01;46.37;101571.94;10456887;28;20045;-71
2023/09/10 12:22:53;;;;;;;1999.90;999.90;;;;;;;35.72;44.94;101577.28;10455853;28;20056;-71
2023/09/10 12:27:56;;;;;;;1999.90;999.90;;;;;;;35.62;45.08;101575.13;10456252;28;20049;-70
2023/09/10 12:32:59;;;;;;;1999.90;999.90;;;;;;;34.95;47.37;101573.50;10455094;28;20607;-70
2023/09/10 12:38:02;;;;;;;1999.90;999.90;;;;;;;34.38;49.72;101560.25;10454943;28;20497;-71
2023/09/10 12:43:04;;;;;;;1999.90;999.90;;;;;;;34.88;48.27;101561.88;10456748;28;20087;-70
2023/09/10 12:48:07;;;;;;;1999.90;999.90;;;;;;;34.96;46.29;101550.66;10438207;28;20140;-70
2023/09/10 12:53:10;;;;;;;1999.90;999.90;;;;;;;34.62;46.05;101552.19;10456525;28;20045;-70
2023/09/10 12:58:13;;;;;;;1999.90;999.90;;;;;;;34.55;50.17;101554.16;10455175;28;20049;-71
2023/09/10 13:03:15;;;;;;;1999.90;999.90;;;;;;;35.77;44.95;101552.09;10455074;28;20048;-71
2023/09/10 13:08:18;;;;;;;1999.90;999.90;;;;;;;35.22;47.81;101539.59;10456099;28;20128;-71
2023/09/10 13:13:20;;;;;;;1999.90;999.90;;;;;;;34.16;48.54;101543.56;10454855;28;20099;-71
2023/09/10 13:18:23;;;;;;;1999.90;999.90;;;;;;;34.38;50.82;101538.50;10455327;28;20049;-71
2023/09/10 13:23:25;;;;;;;1999.90;999.90;;;;;;;35.93;47.42;101540.47;10455878;28;20048;-71
2023/09/10 13:28:27;;;;;;;1999.90;999.90;;;;;;;35.06;44.78;101520.16;10455708;28;20056;-71
2023/09/10 13:33:30;;;;;;;1999.90;999.90;;;;;;;35.80;44.75;101527.09;10462732;28;20568;-71
2023/09/10 13:38:32;;;;;;;1999.90;999.90;;;;;;;34.31;49.32;101517.91;10461991;28;20041;-71
2023/09/10 13:43:34;;;;;;;1999.90;999.90;;;;;;;34.96;45.52;101517.19;10461184;28;20456;-71
2023/09/10 13:48:37;;;;;;;1999.90;999.90;;;;;;;34.29;47.76;101515.41;10461859;28;20057;-71
2023/09/10 13:53:41;;;;;;;1999.90;999.90;;;;;;;35.70;47.09;101514.03;10462580;28;20059;-71
2023/09/10 13:58:45;;;;;;;1999.90;999.90;;;;;;;33.40;51.19;101512.16;10460669;28;20405;-71
2023/09/10 14:03:47;;;;;;;1999.90;999.90;;;;;;;35.74;46.04;101509.78;10461523;28;20508;-71
2023/09/10 14:08:50;;;;;;;1999.90;999.90;;;;;;;36.17;45.91;101507.69;10461287;28;20398;-71
2023/09/10 14:13:52;;;;;;;1999.90;999.90;;;;;;;35.65;49.56;101506.59;10443477;28;20516;-71
2023/09/10 14:18:56;;;;;;;1999.90;999.90;;;;;;;36.17;47.15;101499.50;10461668;28;20047;-71
2023/09/10 14:23:58;;;;;;;1999.90;999.90;;;;;;;35.47;47.58;101509.44;10460752;28;20053;-71
2023/09/10 14:29:00;;;;;;;1999.90;999.90;;;;;;;34.92;47.90;101502.38;10460504;28;20478;-71
2023/09/10 14:34:03;;;;;;;1999.90;999.90;;;;;;;34.99;48.30;101500.41;10461046;28;20155;-71
2023/09/10 14:39:05;;;;;;;1999.90;999.90;;;;;;;35.37;47.19;101498.31;10460798;28;20099;-71
2023/09/10 14:44:10;;;;;;;1999.90;999.90;;;;;;;35.67;47.69;101490.00;10443073;28;20068;-71
2023/09/10 14:49:13;;;;;;;1999.90;999.90;;;;;;;35.63;51.10;101494.28;10459604;28;20048;-71
2023/09/10 14:54:15;;;;;;;1999.90;999.90;;;;;;;35.42;48.75;101487.56;10459049;28;20080;-71
2023/09/10 14:59:17;;;;;;;1999.90;999.90;;;;;;;34.00;52.86;101485.22;10459951;28;20127;-71
2023/09/10 15:04:20;;;;;;;1999.90;999.90;;;;;;;35.42;50.99;101484.84;10459747;28;20045;-71
2023/09/10 15:09:22;;;;;;;1999.90;999.90;;;;;;;33.99;56.21;101483.56;10457726;28;20409;-71
2023/09/10 15:14:25;;;;;;;1999.90;999.90;;;;;;;34.23;53.99;101473.69;10457635;28;20071;-71
2023/09/10 15:19:29;;;;;;;1999.90;999.90;;;;;;;33.71;56.88;101467.84;10459164;28;20079;-71
2023/09/10 15:24:31;;;;;;;1999.90;999.90;;;;;;;33.80;58.34;101474.59;10457327;28;20498;-71
2023/09/10 15:29:34;;;;;;;1999.90;999.90;;;;;;;33.23;59.72;101468.50;10458751;28;20076;-71
2023/09/10 15:34:36;;;;;;;1999.90;999.90;;;;;;;33.51;59.33;101468.84;10456853;28;20413;-71
2023/09/10 15:39:40;;;;;;;1999.90;999.90;;;;;;;32.37;62.44;101452.59;10458502;28;20041;-71
2023/09/10 15:44:42;;;;;;;1999.90;999.90;;;;;;;31.73;66.26;101456.19;10457633;28;20052;-71
2023/09/10 15:49:45;;;;;;;1999.90;999.90;;;;;;;31.51;67.63;101459.16;10457222;28;20064;-71
2023/09/10 15:54:47;;;;;;;1999.90;999.90;;;;;;;30.99;70.20;101455.44;10456761;28;20051;-71
2023/09/10 15:59:49;;;;;;;1999.90;999.90;;;;;;;30.29;74.21;101452.97;10457741;28;20047;-70
2023/09/10 16:04:53;;;;;;;1999.90;999.90;;;;;;;30.36;75.02;101451.16;10456927;28;20506;-70
2023/09/10 16:09:55;;;;;;;1999.90;999.90;;;;;;;29.93;78.44;101446.81;10456164;28;20052;-70
2023/09/10 16:15:00;;;;;;;1999.90;999.90;;;;;;;30.20;76.68;101445.03;10456624;28;20067;-71
2023/09/10 16:20:04;;;;;;;1999.90;999.90;;;;;;;30.21;76.82;101440.47;10455359;28;20425;-71
2023/09/10 16:25:07;;;;;;;1999.90;999.90;;;;;;;29.81;78.81;101437.63;10439699;28;20102;-70
2023/09/10 16:30:11;;;;;;;1999.90;999.90;;;;;;;29.52;79.96;101428.75;10456138;28;20474;-70
2023/09/10 16:35:14;;;;;;;1999.90;999.90;;;;;;;28.73;86.29;101427.03;10456777;28;20102;-70
2023/09/10 16:40:17;;;;;;;1999.90;999.90;;;;;;;28.62;87.52;101433.78;10456692;28;20049;-70
2023/09/10 16:45:19;;;;;;;1999.90;999.90;;;;;;;28.65;87.14;101438.78;10454604;28;20060;-71
2023/09/10 16:50:21;;;;;;;1999.90;999.90;;;;;;;28.54;87.85;101440.09;10455803;28;20383;-70
2023/09/10 16:55:24;;;;;;;1999.90;999.90;;;;;;;27.90;91.78;101439.94;10456424;28;20083;-70
2023/09/10 17:00:26;;;;;;;1999.90;999.90;;;;;;;28.14;89.69;101436.13;10454523;28;20470;-70
2023/09/10 17:05:29;;;;;;;1999.90;999.90;;;;;;;27.71;92.61;101442.19;10459395;28;20051;-70
2023/09/10 17:10:31;;;;;;;1999.90;999.90;;;;;;;27.63;94.71;101439.59;10445879;28;20049;-70
2023/09/10 17:15:34;;;;;;;1999.90;999.90;;;;;;;27.61;93.76;101428.19;10462373;28;20099;-70
2023/09/10 17:20:37;;;;;;;1999.90;999.90;;;;;;;27.43;94.66;101429.38;10446310;28;20068;-70
2023/09/10 17:25:39;;;;;;;1999.90;999.90;;;;;;;26.82;99.71;101431.25;10463161;28;20049;-70
2023/09/10 17:30:41;;;;;;;1999.90;999.90;;;;;;;26.77;98.95;101426.41;10463456;28;20055;-70
2023/09/10 17:35:45;;;;;;;1999.90;999.90;;;;;;;26.46;100.00;101427.28;10462731;28;20045;-70
2023/09/10 17:40:48;;;;;;;1999.90;999.90;;;;;;;26.56;100.00;101428.88;10462500;28;20528;-70
2023/09/10 17:45:50;;;;;;;1999.90;999.90;;;;;;;26.36;100.00;101437.41;10462638;28;20057;-70
2023/09/10 17:50:52;;;;;;;1999.90;999.90;;;;;;;26.13;100.00;101437.38;10461636;28;20053;-70
2023/09/10 17:55:55;;;;;;;1999.90;999.90;;;;;;;26.04;100.00;101441.09;10462609;28;20049;-70
2023/09/10 18:00:57;;;;;;;1999.90;999.90;;;;;;;25.69;100.00;101441.34;10462431;28;20045;-70
2023/09/10 18:06:00;;;;;;;1999.90;999.90;;;;;;;25.47;100.00;101450.09;10461588;28;20536;-69
2023/09/10 18:11:02;;;;;;;1999.90;999.90;;;;;;;25.34;100.00;101451.47;10461918;28;20132;-70
2023/09/10 18:16:05;;;;;;;1999.90;999.90;;;;;;;25.15;100.00;101446.41;10461354;28;20049;-70
2023/09/10 18:21:08;;;;;;;1999.90;999.90;;;;;;;25.04;100.00;101451.13;10461556;28;20055;-69
2023/09/10 18:26:10;;;;;;;1999.90;999.90;;;;;;;24.91;100.00;101452.63;10461461;28;20055;-70
2023/09/10 18:31:13;;;;;;;1999.90;999.90;;;;;;;24.54;100.00;101451.22;10460018;28;20045;-69
2023/09/10 18:36:15;;;;;;;1999.90;999.90;;;;;;;24.64;100.00;101454.59;10459834;28;20087;-69
2023/09/10 18:41:19;;;;;;;1999.90;999.90;;;;;;;24.61;100.00;101454.94;10460170;28;20049;-69
2023/09/10 18:46:22;;;;;;;1999.90;999.90;;;;;;;24.35;100.00;101458.53;10458669;28;20502;-69
2023/09/10 18:51:25;;;;;;;1999.90;999.90;;;;;;;24.43;100.00;101455.88;10458534;28;20387;-69
2023/09/10 18:56:32;;;;;;;1999.90;999.90;;;;;;;24.31;100.00;101462.53;10459059;28;20053;-69
2023/09/10 19:01:34;;;;;;;1999.90;999.90;;;;;;;24.33;100.00;101468.56;10458970;28;20081;-69
2023/09/10 19:06:38;;;;;;;1999.90;999.90;;;;;;;24.19;100.00;101472.69;10459243;28;20539;-69
2023/09/10 19:11:41;;;;;;;1999.90;999.90;;;;;;;24.04;100.00;101466.25;10458396;28;20044;-69
2023/09/10 19:16:46;;;;;;;1999.90;999.90;;;;;;;24.09;100.00;101478.16;10459381;28;20056;-70
2023/09/10 19:21:49;;;;;;;1999.90;999.90;;;;;;;24.22;100.00;101469.66;10459264;28;20091;-70
2023/09/10 19:26:51;;;;;;;1999.90;999.90;;;;;;;24.29;100.00;101464.50;10458196;28;20055;-70
2023/09/10 19:31:55;;;;;;;1999.90;999.90;;;;;;;24.18;100.00;101462.16;10457099;28;20060;-70
2023/09/10 19:36:58;;;;;;;1999.90;999.90;;;;;;;23.93;100.00;101476.25;10457550;28;20076;-70
2023/09/10 19:42:01;;;;;;;1999.90;999.90;;;;;;;23.86;100.00;101472.53;10457839;28;20401;-70
2023/09/10 19:47:03;;;;;;;1999.90;999.90;;;;;;;23.91;100.00;101467.53;10457467;28;20395;-70
2023/09/10 19:52:06;;;;;;;1999.90;999.90;;;;;;;23.88;100.00;101467.84;10456761;28;20056;-70
2023/09/10 19:57:09;;;;;;;1999.90;999.90;;;;;;;23.72;100.00;101470.41;10457257;28;20056;-70
2023/09/10 20:02:11;;;;;;;1999.90;999.90;;;;;;;23.75;100.00;101470.09;10457994;28;20045;-70
2023/09/10 20:07:14;;;;;;;1999.90;999.90;;;;;;;23.56;100.00;101469.31;10457478;28;20103;-70
2023/09/10 20:12:18;;;;;;;1999.90;999.90;;;;;;;23.51;100.00;101481.47;10456682;28;20040;-70
2023/09/10 20:17:21;;;;;;;1999.90;999.90;;;;;;;23.33;100.00;101474.34;10457287;28;20049;-70
2023/09/10 20:22:24;;;;;;;1999.90;999.90;;;;;;;23.49;100.00;101465.59;10456397;28;20045;-70
2023/09/10 20:27:26;;;;;;;1999.90;999.90;;;;;;;23.40;100.00;101460.34;10456959;28;20049;-70
2023/09/10 20:32:29;;;;;;;1999.90;999.90;;;;;;;23.27;100.00;101458.09;10456815;28;20055;-70
2023/09/10 20:37:31;;;;;;;1999.90;999.90;;;;;;;23.13;100.00;101464.81;10456813;28;20052;-70
2023/09/10 20:42:34;;;;;;;1999.90;999.90;;;;;;;23.11;100.00;101456.94;10464881;28;20498;-70
2023/09/10 20:47:36;;;;;;;1999.90;999.90;;;;;;;23.26;100.00;101451.91;10464704;28;20057;-70
2023/09/10 20:52:39;;;;;;;1999.90;999.90;;;;;;;23.22;100.00;101447.00;10463854;28;20137;-70
2023/09/10 20:57:44;;;;;;;1999.90;999.90;;;;;;;23.15;100.00;101450.31;10464835;28;20132;-70
2023/09/10 21:02:46;;;;;;;1999.90;999.90;;;;;;;23.08;100.00;101446.59;10464679;28;20076;-69
2023/09/10 21:07:49;;;;;;;1999.90;999.90;;;;;;;22.91;100.00;101450.06;10462648;28;20048;-70
2023/09/10 21:12:52;;;;;;;1999.90;999.90;;;;;;;22.92;100.00;101446.44;10463629;28;20135;-70
2023/09/10 21:18:08;;;;;;;1999.90;999.90;;;;;;;22.91;100.00;101442.91;10463088;28;20049;-70
2023/09/10 21:23:10;;;;;;;1999.90;999.90;;;;;;;22.78;100.00;101445.13;10463980;28;20049;-70
2023/09/10 21:28:13;;;;;;;1999.90;999.90;;;;;;;22.51;100.00;101440.69;10463624;28;20053;-70
2023/09/10 21:33:15;;;;;;;1999.90;999.90;;;;;;;22.57;100.00;101437.41;10461558;28;20522;-70
2023/09/10 21:38:18;;;;;;;1999.90;999.90;;;;;;;22.77;100.00;101435.44;10445009;28;20417;-70
2023/09/10 21:43:20;;;;;;;1999.90;999.90;;;;;;;22.68;100.00;101431.00;10463130;28;20045;-69
2023/09/10 21:48:23;;;;;;;1999.90;999.90;;;;;;;22.43;100.00;101428.94;10461988;28;20056;-69